sensor_id;sensor_type;location;lat;lon;timestamp;P1;durP1;ratioP1;P2;durP2;ratioP2
18503;SDS011;9381;54.244;10.074;2023-04-01T00:02:27;33.55;;;18.33;;
18503;SDS011;9381;54.244;10.074;2023-04-01T00:07:28;31.55;;;16.83;;
18503;SDS011;9381;54.244;10.074;2023-04-01T00:12:28;37.00;;;18.90;;
18503;SDS011;9381;54.244;10.074;2023-04-01T00:17:28;30.77;;;17.67;;
18503;SDS011;9381;54.244;10.074;2023-04-01T00:22:29;32.07;;;17.90;;
18503;SDS011;9381;54.244;10.074;2023-04-01T00:27:29;31.67;;;17.40;;
18503;SDS011;9381;54.244;10.074;2023-04-01T00:32:29;26.23;;;16.50;;
18503;SDS011;9381;54.244;10.074;2023-04-01T00:37:31;23.50;;;14.57;;
18503;SDS011;9381;54.244;10.074;2023-04-01T00:42:35;23.27;;;13.50;;
18503;SDS011;9381;54.244;10.074;2023-04-01T00:47:35;18.13;;;11.77;;
18503;SDS011;9381;54.244;10.074;2023-04-01T00:52:36;18.00;;;11.43;;
18503;SDS011;9381;54.244;10.074;2023-04-01T00:57:36;13.67;;;9.27;;
18503;SDS011;9381;54.244;10.074;2023-04-01T01:02:41;12.77;;;8.47;;
18503;SDS011;9381;54.244;10.074;2023-04-01T01:08:03;9.43;;;7.40;;
18503;SDS011;9381;54.244;10.074;2023-04-01T01:18:21;8.25;;;5.82;;
18503;SDS011;9381;54.244;10.074;2023-04-01T01:34:44;10.43;;;7.40;;
18503;SDS011;9381;54.244;10.074;2023-04-01T01:40:06;9.70;;;7.17;;
18503;SDS011;9381;54.244;10.074;2023-04-01T01:45:09;9.03;;;6.70;;
18503;SDS011;9381;54.244;10.074;2023-04-01T01:50:12;9.50;;;5.97;;
18503;SDS011;9381;54.244;10.074;2023-04-01T01:55:24;8.43;;;6.10;;
18503;SDS011;9381;54.244;10.074;2023-04-01T02:00:28;8.13;;;5.33;;
18503;SDS011;9381;54.244;10.074;2023-04-01T02:05:28;4.83;;;3.93;;
18503;SDS011;9381;54.244;10.074;2023-04-01T02:10:31;5.73;;;3.93;;
18503;SDS011;9381;54.244;10.074;2023-04-01T02:15:37;5.20;;;3.33;;
18503;SDS011;9381;54.244;10.074;2023-04-01T02:20:42;6.00;;;3.27;;
18503;SDS011;9381;54.244;10.074;2023-04-01T02:25:44;4.73;;;3.13;;
18503;SDS011;9381;54.244;10.074;2023-04-01T02:30:46;5.33;;;3.10;;
18503;SDS011;9381;54.244;10.074;2023-04-01T02:35:48;3.73;;;2.33;;
18503;SDS011;9381;54.244;10.074;2023-04-01T02:40:51;3.10;;;2.80;;
18503;SDS011;9381;54.244;10.074;2023-04-01T02:45:57;2.67;;;2.47;;
18503;SDS011;9381;54.244;10.074;2023-04-01T02:50:58;3.37;;;2.30;;
18503;SDS011;9381;54.244;10.074;2023-04-01T02:55:58;1.93;;;1.80;;
18503;SDS011;9381;54.244;10.074;2023-04-01T03:00:58;2.20;;;2.00;;
18503;SDS011;9381;54.244;10.074;2023-04-01T03:06:04;2.22;;;2.05;;
18503;SDS011;9381;54.244;10.074;2023-04-01T03:11:06;2.73;;;1.73;;
18503;SDS011;9381;54.244;10.074;2023-04-01T03:16:06;2.17;;;1.60;;
18503;SDS011;9381;54.244;10.074;2023-04-01T03:21:40;3.67;;;1.80;;
18503;SDS011;9381;54.244;10.074;2023-04-01T03:26:33;1.43;;;1.33;;
18503;SDS011;9381;54.244;10.074;2023-04-01T03:31:34;2.00;;;1.17;;
18503;SDS011;9381;54.244;10.074;2023-04-01T03:36:34;1.53;;;1.00;;
18503;SDS011;9381;54.244;10.074;2023-04-01T03:41:35;1.83;;;1.20;;
18503;SDS011;9381;54.244;10.074;2023-04-01T03:46:37;1.53;;;1.00;;
18503;SDS011;9381;54.244;10.074;2023-04-01T03:51:38;1.80;;;1.37;;
18503;SDS011;9381;54.244;10.074;2023-04-01T03:56:39;1.67;;;1.20;;
18503;SDS011;9381;54.244;10.074;2023-04-01T04:01:40;1.40;;;1.30;;
18503;SDS011;9381;54.244;10.074;2023-04-01T04:06:40;1.90;;;1.45;;
18503;SDS011;9381;54.244;10.074;2023-04-01T04:11:40;2.40;;;1.60;;
18503;SDS011;9381;54.244;10.074;2023-04-01T04:16:41;2.60;;;1.43;;
18503;SDS011;9381;54.244;10.074;2023-04-01T04:21:41;2.60;;;1.60;;
18503;SDS011;9381;54.244;10.074;2023-04-01T04:26:42;1.80;;;1.57;;
18503;SDS011;9381;54.244;10.074;2023-04-01T04:31:42;2.33;;;1.65;;
18503;SDS011;9381;54.244;10.074;2023-04-01T04:36:43;3.17;;;1.93;;
18503;SDS011;9381;54.244;10.074;2023-04-01T04:41:45;2.40;;;1.90;;
18503;SDS011;9381;54.244;10.074;2023-04-01T04:46:45;3.28;;;2.03;;
18503;SDS011;9381;54.244;10.074;2023-04-01T04:51:45;3.42;;;1.77;;
18503;SDS011;9381;54.244;10.074;2023-04-01T04:56:45;3.97;;;1.88;;
18503;SDS011;9381;54.244;10.074;2023-04-01T05:01:46;2.53;;;1.90;;
18503;SDS011;9381;54.244;10.074;2023-04-01T05:06:46;2.50;;;1.80;;
18503;SDS011;9381;54.244;10.074;2023-04-01T05:11:46;2.20;;;1.70;;
18503;SDS011;9381;54.244;10.074;2023-04-01T05:16:47;3.45;;;2.10;;
18503;SDS011;9381;54.244;10.074;2023-04-01T05:21:47;1.80;;;1.70;;
18503;SDS011;9381;54.244;10.074;2023-04-01T05:26:47;2.45;;;1.80;;
18503;SDS011;9381;54.244;10.074;2023-04-01T05:31:47;2.83;;;1.70;;
18503;SDS011;9381;54.244;10.074;2023-04-01T05:36:48;4.20;;;1.95;;
18503;SDS011;9381;54.244;10.074;2023-04-01T05:41:48;2.15;;;1.85;;
18503;SDS011;9381;54.244;10.074;2023-04-01T05:46:48;4.23;;;2.20;;
18503;SDS011;9381;54.244;10.074;2023-04-01T05:51:49;2.53;;;1.90;;
18503;SDS011;9381;54.244;10.074;2023-04-01T05:56:49;2.90;;;1.87;;
18503;SDS011;9381;54.244;10.074;2023-04-01T06:01:50;4.63;;;2.30;;
18503;SDS011;9381;54.244;10.074;2023-04-01T06:06:50;2.60;;;2.27;;
18503;SDS011;9381;54.244;10.074;2023-04-01T06:17:12;3.03;;;1.93;;
18503;SDS011;9381;54.244;10.074;2023-04-01T06:28:05;2.50;;;1.97;;
18503;SDS011;9381;54.244;10.074;2023-04-01T06:38:30;3.23;;;1.80;;
18503;SDS011;9381;54.244;10.074;2023-04-01T06:44:00;2.10;;;1.90;;
18503;SDS011;9381;54.244;10.074;2023-04-01T06:54:47;3.70;;;1.80;;
18503;SDS011;9381;54.244;10.074;2023-04-01T06:59:52;2.87;;;1.80;;
18503;SDS011;9381;54.244;10.074;2023-04-01T07:04:55;4.10;;;2.00;;
18503;SDS011;9381;54.244;10.074;2023-04-01T07:09:58;2.67;;;2.00;;
18503;SDS011;9381;54.244;10.074;2023-04-01T07:15:04;3.20;;;2.03;;
18503;SDS011;9381;54.244;10.074;2023-04-01T07:25:36;3.57;;;2.17;;
18503;SDS011;9381;54.244;10.074;2023-04-01T07:36:06;2.53;;;1.90;;
18503;SDS011;9381;54.244;10.074;2023-04-01T07:57:14;2.63;;;2.00;;
18503;SDS011;9381;54.244;10.074;2023-04-01T08:23:31;2.83;;;2.30;;
18503;SDS011;9381;54.244;10.074;2023-04-01T08:28:41;4.03;;;1.90;;
18503;SDS011;9381;54.244;10.074;2023-04-01T08:33:46;5.17;;;2.00;;
18503;SDS011;9381;54.244;10.074;2023-04-01T08:38:50;2.00;;;1.70;;
18503;SDS011;9381;54.244;10.074;2023-04-01T09:00:31;4.80;;;2.20;;
18503;SDS011;9381;54.244;10.074;2023-04-01T09:16:07;8.17;;;3.60;;
18503;SDS011;9381;54.244;10.074;2023-04-01T09:21:52;5.83;;;3.90;;
18503;SDS011;9381;54.244;10.074;2023-04-01T09:27:21;9.33;;;4.03;;
18503;SDS011;9381;54.244;10.074;2023-04-01T09:37:34;9.68;;;5.38;;
18503;SDS011;9381;54.244;10.074;2023-04-01T10:15:48;9.97;;;5.10;;
18503;SDS011;9381;54.244;10.074;2023-04-01T10:26:10;9.40;;;6.23;;
18503;SDS011;9381;54.244;10.074;2023-04-01T11:19:56;11.87;;;6.90;;
18503;SDS011;9381;54.244;10.074;2023-04-01T12:02:38;14.67;;;5.90;;
18503;SDS011;9381;54.244;10.074;2023-04-01T12:08:02;12.07;;;5.70;;
18503;SDS011;9381;54.244;10.074;2023-04-01T12:39:56;15.30;;;5.97;;
18503;SDS011;9381;54.244;10.074;2023-04-01T12:50:15;12.43;;;6.10;;
18503;SDS011;9381;54.244;10.074;2023-04-01T12:55:36;11.20;;;5.20;;
18503;SDS011;9381;54.244;10.074;2023-04-01T13:00:43;9.83;;;5.40;;
18503;SDS011;9381;54.244;10.074;2023-04-01T13:06:00;10.37;;;5.33;;
18503;SDS011;9381;54.244;10.074;2023-04-01T13:16:22;8.67;;;5.37;;
18503;SDS011;9381;54.244;10.074;2023-04-01T13:21:46;14.17;;;5.30;;
18503;SDS011;9381;54.244;10.074;2023-04-01T13:42:59;10.83;;;5.17;;
18503;SDS011;9381;54.244;10.074;2023-04-01T13:48:10;12.37;;;5.23;;
18503;SDS011;9381;54.244;10.074;2023-04-01T14:10:13;21.97;;;13.93;;
18503;SDS011;9381;54.244;10.074;2023-04-01T15:20:16;14.23;;;5.23;;
18503;SDS011;9381;54.244;10.074;2023-04-01T15:51:19;22.77;;;15.10;;
18503;SDS011;9381;54.244;10.074;2023-04-01T16:01:58;13.43;;;7.07;;
18503;SDS011;9381;54.244;10.074;2023-04-01T16:07:10;12.07;;;4.77;;
18503;SDS011;9381;54.244;10.074;2023-04-01T16:34:44;7.40;;;3.00;;
18503;SDS011;9381;54.244;10.074;2023-04-01T16:45:35;7.83;;;3.33;;
18503;SDS011;9381;54.244;10.074;2023-04-01T17:01:07;9.20;;;5.87;;
18503;SDS011;9381;54.244;10.074;2023-04-01T17:06:23;12.80;;;5.17;;
18503;SDS011;9381;54.244;10.074;2023-04-01T17:11:45;8.73;;;4.27;;
18503;SDS011;9381;54.244;10.074;2023-04-01T17:48:45;8.83;;;5.03;;
18503;SDS011;9381;54.244;10.074;2023-04-01T17:54:15;6.77;;;3.63;;
18503;SDS011;9381;54.244;10.074;2023-04-01T18:15:19;11.03;;;6.37;;
18503;SDS011;9381;54.244;10.074;2023-04-01T18:26:04;9.00;;;3.77;;
18503;SDS011;9381;54.244;10.074;2023-04-01T18:31:09;6.40;;;4.60;;
18503;SDS011;9381;54.244;10.074;2023-04-01T18:41:55;13.27;;;8.80;;
18503;SDS011;9381;54.244;10.074;2023-04-01T18:47:22;11.53;;;7.90;;
18503;SDS011;9381;54.244;10.074;2023-04-01T18:52:44;14.27;;;11.77;;
18503;SDS011;9381;54.244;10.074;2023-04-01T18:57:49;13.57;;;9.33;;
18503;SDS011;9381;54.244;10.074;2023-04-01T19:03:07;6.67;;;5.50;;
18503;SDS011;9381;54.244;10.074;2023-04-01T19:08:25;8.10;;;4.10;;
18503;SDS011;9381;54.244;10.074;2023-04-01T19:19:18;5.47;;;3.23;;
18503;SDS011;9381;54.244;10.074;2023-04-01T19:25:02;5.77;;;2.97;;
18503;SDS011;9381;54.244;10.074;2023-04-01T19:30:27;31.33;;;13.80;;
18503;SDS011;9381;54.244;10.074;2023-04-01T19:35:54;8.33;;;3.07;;
18503;SDS011;9381;54.244;10.074;2023-04-01T19:41:00;5.50;;;2.77;;
18503;SDS011;9381;54.244;10.074;2023-04-01T19:56:31;9.23;;;2.70;;
18503;SDS011;9381;54.244;10.074;2023-04-01T20:01:50;7.70;;;2.87;;
18503;SDS011;9381;54.244;10.074;2023-04-01T20:07:07;5.30;;;2.30;;
18503;SDS011;9381;54.244;10.074;2023-04-01T20:17:42;9.03;;;2.67;;
18503;SDS011;9381;54.244;10.074;2023-04-01T20:27:50;5.68;;;2.30;;
18503;SDS011;9381;54.244;10.074;2023-04-01T20:38:48;7.50;;;2.40;;
18503;SDS011;9381;54.244;10.074;2023-04-01T21:05:20;4.30;;;1.90;;
18503;SDS011;9381;54.244;10.074;2023-04-01T21:36:11;6.97;;;2.13;;
18503;SDS011;9381;54.244;10.074;2023-04-01T22:30:04;6.57;;;2.13;;
18503;SDS011;9381;54.244;10.074;2023-04-01T22:35:24;5.03;;;2.00;;
18503;SDS011;9381;54.244;10.074;2023-04-01T22:40:54;5.83;;;2.40;;
18503;SDS011;9381;54.244;10.074;2023-04-01T22:51:40;4.07;;;1.90;;
18503;SDS011;9381;54.244;10.074;2023-04-01T22:56:53;11.63;;;2.30;;
18503;SDS011;9381;54.244;10.074;2023-04-01T23:01:59;2.73;;;1.53;;
18503;SDS011;9381;54.244;10.074;2023-04-01T23:07:14;4.37;;;1.70;;
18503;SDS011;9381;54.244;10.074;2023-04-01T23:12:25;7.73;;;2.00;;
18503;SDS011;9381;54.244;10.074;2023-04-01T23:22:57;5.10;;;1.50;;
18503;SDS011;9381;54.244;10.074;2023-04-01T23:38:20;4.23;;;2.03;;
18503;SDS011;9381;54.244;10.074;2023-04-01T23:43:25;3.27;;;1.63;;
18503;SDS011;9381;54.244;10.074;2023-04-01T23:48:32;5.23;;;1.70;;
18503;SDS011;9381;54.244;10.074;2023-04-01T23:53:36;2.10;;;1.30;;
18503;SDS011;9381;54.244;10.074;2023-04-01T23:58:46;4.40;;;1.60;;
